sensor_id;sensor_type;location;lat;lon;timestamp;temperature;humidity
45837;DHT22;31548;51.420;-0.040;2023-08-12T00:02:17;19.10;99.90
45837;DHT22;31548;51.420;-0.040;2023-08-12T00:04:45;19.10;99.90
45837;DHT22;31548;51.420;-0.040;2023-08-12T00:07:13;19.10;99.90
45837;DHT22;31548;51.420;-0.040;2023-08-12T00:09:41;19.00;99.90
45837;DHT22;31548;51.420;-0.040;2023-08-12T00:12:08;19.10;99.90
45837;DHT22;31548;51.420;-0.040;2023-08-12T00:14:36;19.00;99.90
45837;DHT22;31548;51.420;-0.040;2023-08-12T00:17:03;19.00;99.90
45837;DHT22;31548;51.420;-0.040;2023-08-12T00:19:31;18.90;99.90
45837;DHT22;31548;51.420;-0.040;2023-08-12T00:21:58;18.90;99.90
45837;DHT22;31548;51.420;-0.040;2023-08-12T00:24:26;18.90;99.90
45837;DHT22;31548;51.420;-0.040;2023-08-12T00:26:53;18.90;99.90
45837;DHT22;31548;51.420;-0.040;2023-08-12T00:29:22;18.90;99.90
45837;DHT22;31548;51.420;-0.040;2023-08-12T00:31:50;18.90;99.90
45837;DHT22;31548;51.420;-0.040;2023-08-12T00:34:17;18.80;99.90
45837;DHT22;31548;51.420;-0.040;2023-08-12T00:36:45;18.80;99.90
45837;DHT22;31548;51.420;-0.040;2023-08-12T00:39:12;18.80;99.90
45837;DHT22;31548;51.420;-0.040;2023-08-12T00:41:40;18.80;99.90
45837;DHT22;31548;51.420;-0.040;2023-08-12T00:44:07;18.70;99.90
45837;DHT22;31548;51.420;-0.040;2023-08-12T00:46:36;18.60;99.90
45837;DHT22;31548;51.420;-0.040;2023-08-12T00:49:04;18.70;99.90
45837;DHT22;31548;51.420;-0.040;2023-08-12T00:51:32;18.70;99.90
45837;DHT22;31548;51.420;-0.040;2023-08-12T00:54:04;18.60;99.90
45837;DHT22;31548;51.420;-0.040;2023-08-12T00:56:33;18.60;99.90
45837;DHT22;31548;51.420;-0.040;2023-08-12T00:59:04;18.50;99.90
45837;DHT22;31548;51.420;-0.040;2023-08-12T01:01:33;18.50;99.90
45837;DHT22;31548;51.420;-0.040;2023-08-12T01:04:01;18.50;99.90
45837;DHT22;31548;51.420;-0.040;2023-08-12T01:06:28;18.50;99.90
45837;DHT22;31548;51.420;-0.040;2023-08-12T01:08:56;18.50;99.90
45837;DHT22;31548;51.420;-0.040;2023-08-12T01:14:12;18.40;99.90
45837;DHT22;31548;51.420;-0.040;2023-08-12T01:16:46;18.40;99.90
45837;DHT22;31548;51.420;-0.040;2023-08-12T01:19:32;18.40;99.90
45837;DHT22;31548;51.420;-0.040;2023-08-12T01:22:05;18.30;99.90
45837;DHT22;31548;51.420;-0.040;2023-08-12T01:24:41;18.30;99.90
45837;DHT22;31548;51.420;-0.040;2023-08-12T01:27:11;18.20;99.90
45837;DHT22;31548;51.420;-0.040;2023-08-12T01:29:48;18.30;99.90
45837;DHT22;31548;51.420;-0.040;2023-08-12T01:32:43;18.30;99.90
45837;DHT22;31548;51.420;-0.040;2023-08-12T01:35:28;18.30;99.90
45837;DHT22;31548;51.420;-0.040;2023-08-12T01:37:57;18.20;99.90
45837;DHT22;31548;51.420;-0.040;2023-08-12T01:40:28;18.20;99.90
45837;DHT22;31548;51.420;-0.040;2023-08-12T01:42:58;18.10;99.90
45837;DHT22;31548;51.420;-0.040;2023-08-12T01:45:26;18.10;99.90
45837;DHT22;31548;51.420;-0.040;2023-08-12T01:47:53;18.10;99.90
45837;DHT22;31548;51.420;-0.040;2023-08-12T01:50:21;18.10;99.90
45837;DHT22;31548;51.420;-0.040;2023-08-12T01:52:49;18.10;99.90
45837;DHT22;31548;51.420;-0.040;2023-08-12T01:55:16;18.00;99.90
45837;DHT22;31548;51.420;-0.040;2023-08-12T01:57:44;18.10;99.90
45837;DHT22;31548;51.420;-0.040;2023-08-12T02:00:12;18.10;99.90
45837;DHT22;31548;51.420;-0.040;2023-08-12T02:02:43;18.00;99.90
45837;DHT22;31548;51.420;-0.040;2023-08-12T02:05:14;18.00;99.90
45837;DHT22;31548;51.420;-0.040;2023-08-12T02:07:42;18.00;99.90
45837;DHT22;31548;51.420;-0.040;2023-08-12T02:10:09;17.90;99.90
45837;DHT22;31548;51.420;-0.040;2023-08-12T02:12:37;17.90;99.90
45837;DHT22;31548;51.420;-0.040;2023-08-12T02:15:06;17.90;99.90
45837;DHT22;31548;51.420;-0.040;2023-08-12T02:17:33;17.80;99.90
45837;DHT22;31548;51.420;-0.040;2023-08-12T02:20:01;17.80;99.90
45837;DHT22;31548;51.420;-0.040;2023-08-12T02:22:29;17.70;99.90
45837;DHT22;31548;51.420;-0.040;2023-08-12T02:24:57;17.70;99.90
45837;DHT22;31548;51.420;-0.040;2023-08-12T02:27:25;17.60;99.90
45837;DHT22;31548;51.420;-0.040;2023-08-12T02:29:52;17.60;99.90
45837;DHT22;31548;51.420;-0.040;2023-08-12T02:32:20;17.60;99.90
45837;DHT22;31548;51.420;-0.040;2023-08-12T02:34:47;17.60;99.90
45837;DHT22;31548;51.420;-0.040;2023-08-12T02:37:14;17.60;99.90
45837;DHT22;31548;51.420;-0.040;2023-08-12T02:39:42;17.50;99.90
45837;DHT22;31548;51.420;-0.040;2023-08-12T02:42:10;17.50;99.90
45837;DHT22;31548;51.420;-0.040;2023-08-12T02:44:37;17.40;99.90
45837;DHT22;31548;51.420;-0.040;2023-08-12T02:47:05;17.40;99.90
45837;DHT22;31548;51.420;-0.040;2023-08-12T02:49:32;17.30;99.90
45837;DHT22;31548;51.420;-0.040;2023-08-12T02:52:00;17.30;99.90
45837;DHT22;31548;51.420;-0.040;2023-08-12T02:54:27;17.30;99.90
45837;DHT22;31548;51.420;-0.040;2023-08-12T02:56:54;17.20;99.90
45837;DHT22;31548;51.420;-0.040;2023-08-12T02:59:22;17.20;99.90
45837;DHT22;31548;51.420;-0.040;2023-08-12T03:01:52;17.10;99.90
45837;DHT22;31548;51.420;-0.040;2023-08-12T03:04:19;17.00;99.90
45837;DHT22;31548;51.420;-0.040;2023-08-12T03:06:47;17.00;99.90
45837;DHT22;31548;51.420;-0.040;2023-08-12T03:09:15;17.00;99.90
45837;DHT22;31548;51.420;-0.040;2023-08-12T03:11:44;17.00;99.90
45837;DHT22;31548;51.420;-0.040;2023-08-12T03:14:12;16.90;99.90
45837;DHT22;31548;51.420;-0.040;2023-08-12T03:16:39;16.90;99.90
45837;DHT22;31548;51.420;-0.040;2023-08-12T03:19:07;17.00;99.90
45837;DHT22;31548;51.420;-0.040;2023-08-12T03:21:35;16.90;99.90
45837;DHT22;31548;51.420;-0.040;2023-08-12T03:24:03;16.90;99.90
45837;DHT22;31548;51.420;-0.040;2023-08-12T03:26:31;17.00;99.90
45837;DHT22;31548;51.420;-0.040;2023-08-12T03:28:58;17.00;99.90
45837;DHT22;31548;51.420;-0.040;2023-08-12T03:31:27;17.10;99.90
45837;DHT22;31548;51.420;-0.040;2023-08-12T03:33:54;17.10;99.90
45837;DHT22;31548;51.420;-0.040;2023-08-12T03:36:22;17.10;99.90
45837;DHT22;31548;51.420;-0.040;2023-08-12T03:38:49;17.10;99.90
45837;DHT22;31548;51.420;-0.040;2023-08-12T03:41:22;17.10;99.90
45837;DHT22;31548;51.420;-0.040;2023-08-12T03:43:50;17.10;99.90
45837;DHT22;31548;51.420;-0.040;2023-08-12T03:46:18;17.00;99.90
45837;DHT22;31548;51.420;-0.040;2023-08-12T03:48:46;17.00;99.90
45837;DHT22;31548;51.420;-0.040;2023-08-12T03:51:13;17.10;99.90
45837;DHT22;31548;51.420;-0.040;2023-08-12T03:53:41;17.10;99.90
45837;DHT22;31548;51.420;-0.040;2023-08-12T03:56:08;17.10;99.90
45837;DHT22;31548;51.420;-0.040;2023-08-12T03:58:36;17.10;99.90
45837;DHT22;31548;51.420;-0.040;2023-08-12T04:01:04;17.10;99.90
45837;DHT22;31548;51.420;-0.040;2023-08-12T04:03:31;17.10;99.90
45837;DHT22;31548;51.420;-0.040;2023-08-12T04:05:59;17.20;99.90
45837;DHT22;31548;51.420;-0.040;2023-08-12T04:08:27;17.30;99.90
45837;DHT22;31548;51.420;-0.040;2023-08-12T04:10:55;17.30;99.90
45837;DHT22;31548;51.420;-0.040;2023-08-12T04:13:24;17.20;99.90
45837;DHT22;31548;51.420;-0.040;2023-08-12T04:15:52;17.10;99.90
45837;DHT22;31548;51.420;-0.040;2023-08-12T04:18:24;17.10;99.90
45837;DHT22;31548;51.420;-0.040;2023-08-12T04:20:53;17.00;99.90
45837;DHT22;31548;51.420;-0.040;2023-08-12T04:23:21;17.00;99.90
45837;DHT22;31548;51.420;-0.040;2023-08-12T04:25:49;17.00;99.90
45837;DHT22;31548;51.420;-0.040;2023-08-12T04:28:18;16.90;99.90
45837;DHT22;31548;51.420;-0.040;2023-08-12T04:30:48;17.00;99.90
45837;DHT22;31548;51.420;-0.040;2023-08-12T04:33:19;16.90;99.90
45837;DHT22;31548;51.420;-0.040;2023-08-12T04:35:49;16.90;99.90
45837;DHT22;31548;51.420;-0.040;2023-08-12T04:38:18;16.90;99.90
45837;DHT22;31548;51.420;-0.040;2023-08-12T04:40:48;16.80;99.90
45837;DHT22;31548;51.420;-0.040;2023-08-12T04:43:16;16.90;99.90
45837;DHT22;31548;51.420;-0.040;2023-08-12T04:45:47;16.90;99.90
45837;DHT22;31548;51.420;-0.040;2023-08-12T04:48:18;16.90;99.90
45837;DHT22;31548;51.420;-0.040;2023-08-12T04:50:45;16.90;99.90
45837;DHT22;31548;51.420;-0.040;2023-08-12T04:53:13;17.00;99.90
45837;DHT22;31548;51.420;-0.040;2023-08-12T04:55:40;17.00;99.90
45837;DHT22;31548;51.420;-0.040;2023-08-12T04:58:09;17.00;99.90
45837;DHT22;31548;51.420;-0.040;2023-08-12T05:00:37;17.10;99.90
45837;DHT22;31548;51.420;-0.040;2023-08-12T05:03:04;17.10;99.90
45837;DHT22;31548;51.420;-0.040;2023-08-12T05:05:32;17.10;99.90
45837;DHT22;31548;51.420;-0.040;2023-08-12T05:08:00;17.20;99.90
45837;DHT22;31548;51.420;-0.040;2023-08-12T05:10:27;17.20;99.90
45837;DHT22;31548;51.420;-0.040;2023-08-12T05:12:57;17.20;99.90
45837;DHT22;31548;51.420;-0.040;2023-08-12T05:15:26;17.20;99.90
45837;DHT22;31548;51.420;-0.040;2023-08-12T05:17:54;17.20;99.90
45837;DHT22;31548;51.420;-0.040;2023-08-12T05:20:22;17.20;99.90
45837;DHT22;31548;51.420;-0.040;2023-08-12T05:22:50;17.20;99.90
45837;DHT22;31548;51.420;-0.040;2023-08-12T05:25:18;17.10;99.90
45837;DHT22;31548;51.420;-0.040;2023-08-12T05:27:45;17.10;99.90
45837;DHT22;31548;51.420;-0.040;2023-08-12T05:30:13;17.10;99.90
45837;DHT22;31548;51.420;-0.040;2023-08-12T05:32:41;17.10;99.90
45837;DHT22;31548;51.420;-0.040;2023-08-12T05:35:09;17.10;99.90
45837;DHT22;31548;51.420;-0.040;2023-08-12T05:37:36;17.10;99.90
45837;DHT22;31548;51.420;-0.040;2023-08-12T05:40:05;17.10;99.90
45837;DHT22;31548;51.420;-0.040;2023-08-12T05:42:36;17.00;99.90
45837;DHT22;31548;51.420;-0.040;2023-08-12T05:45:04;17.00;99.90
45837;DHT22;31548;51.420;-0.040;2023-08-12T05:47:34;17.10;99.90
45837;DHT22;31548;51.420;-0.040;2023-08-12T05:50:02;17.00;99.90
45837;DHT22;31548;51.420;-0.040;2023-08-12T05:52:30;17.00;99.90
45837;DHT22;31548;51.420;-0.040;2023-08-12T05:54:57;17.00;99.90
45837;DHT22;31548;51.420;-0.040;2023-08-12T05:57:25;17.10;99.90
45837;DHT22;31548;51.420;-0.040;2023-08-12T05:59:55;17.10;99.90
45837;DHT22;31548;51.420;-0.040;2023-08-12T06:02:23;17.10;99.90
45837;DHT22;31548;51.420;-0.040;2023-08-12T06:04:51;17.10;99.90
45837;DHT22;31548;51.420;-0.040;2023-08-12T06:07:18;17.20;99.90
45837;DHT22;31548;51.420;-0.040;2023-08-12T06:09:45;17.20;99.90
45837;DHT22;31548;51.420;-0.040;2023-08-12T06:12:13;17.20;99.90
45837;DHT22;31548;51.420;-0.040;2023-08-12T06:14:40;17.20;99.90
45837;DHT22;31548;51.420;-0.040;2023-08-12T06:17:08;17.20;99.90
45837;DHT22;31548;51.420;-0.040;2023-08-12T06:19:35;17.20;99.90
45837;DHT22;31548;51.420;-0.040;2023-08-12T06:22:03;17.20;99.90
45837;DHT22;31548;51.420;-0.040;2023-08-12T06:24:30;17.30;99.90
45837;DHT22;31548;51.420;-0.040;2023-08-12T06:26:57;17.30;99.90
45837;DHT22;31548;51.420;-0.040;2023-08-12T06:29:25;17.20;99.90
45837;DHT22;31548;51.420;-0.040;2023-08-12T06:31:53;17.20;99.90
45837;DHT22;31548;51.420;-0.040;2023-08-12T06:34:21;17.30;99.90
45837;DHT22;31548;51.420;-0.040;2023-08-12T06:36:48;17.30;99.90
45837;DHT22;31548;51.420;-0.040;2023-08-12T06:39:15;17.40;99.90
45837;DHT22;31548;51.420;-0.040;2023-08-12T06:41:43;17.40;99.90
45837;DHT22;31548;51.420;-0.040;2023-08-12T06:44:11;17.50;99.90
45837;DHT22;31548;51.420;-0.040;2023-08-12T06:46:38;17.60;99.90
45837;DHT22;31548;51.420;-0.040;2023-08-12T06:49:07;17.60;99.90
45837;DHT22;31548;51.420;-0.040;2023-08-12T06:51:34;17.70;99.90
45837;DHT22;31548;51.420;-0.040;2023-08-12T06:54:02;17.70;99.90
45837;DHT22;31548;51.420;-0.040;2023-08-12T06:56:29;17.80;99.90
45837;DHT22;31548;51.420;-0.040;2023-08-12T06:58:57;17.80;99.90
45837;DHT22;31548;51.420;-0.040;2023-08-12T07:01:24;17.80;99.90
45837;DHT22;31548;51.420;-0.040;2023-08-12T07:03:52;17.80;99.90
45837;DHT22;31548;51.420;-0.040;2023-08-12T07:06:19;17.80;99.90
45837;DHT22;31548;51.420;-0.040;2023-08-12T07:08:47;17.80;99.90
45837;DHT22;31548;51.420;-0.040;2023-08-12T07:11:14;17.80;99.90
45837;DHT22;31548;51.420;-0.040;2023-08-12T07:13:42;17.90;99.90
45837;DHT22;31548;51.420;-0.040;2023-08-12T07:16:13;17.90;99.90
45837;DHT22;31548;51.420;-0.040;2023-08-12T07:18:41;18.00;99.90
45837;DHT22;31548;51.420;-0.040;2023-08-12T07:21:08;18.00;99.90
45837;DHT22;31548;51.420;-0.040;2023-08-12T07:23:36;18.00;99.90
45837;DHT22;31548;51.420;-0.040;2023-08-12T07:26:04;18.10;99.90
45837;DHT22;31548;51.420;-0.040;2023-08-12T07:28:32;18.10;99.90
45837;DHT22;31548;51.420;-0.040;2023-08-12T07:31:02;18.20;99.90
45837;DHT22;31548;51.420;-0.040;2023-08-12T07:33:30;18.30;99.90
45837;DHT22;31548;51.420;-0.040;2023-08-12T07:35:57;18.40;99.90
45837;DHT22;31548;51.420;-0.040;2023-08-12T07:38:25;18.40;99.90
45837;DHT22;31548;51.420;-0.040;2023-08-12T07:40:53;18.50;99.90
45837;DHT22;31548;51.420;-0.040;2023-08-12T07:43:20;18.50;99.90
45837;DHT22;31548;51.420;-0.040;2023-08-12T07:45:52;18.60;99.90
45837;DHT22;31548;51.420;-0.040;2023-08-12T07:48:35;18.70;99.90
45837;DHT22;31548;51.420;-0.040;2023-08-12T07:51:02;18.80;99.90
45837;DHT22;31548;51.420;-0.040;2023-08-12T07:53:30;18.90;99.90
45837;DHT22;31548;51.420;-0.040;2023-08-12T07:55:57;18.90;99.90
45837;DHT22;31548;51.420;-0.040;2023-08-12T07:58:25;18.90;99.90
45837;DHT22;31548;51.420;-0.040;2023-08-12T08:00:53;18.90;99.90
45837;DHT22;31548;51.420;-0.040;2023-08-12T08:03:21;19.10;99.90
45837;DHT22;31548;51.420;-0.040;2023-08-12T08:05:48;19.20;99.90
45837;DHT22;31548;51.420;-0.040;2023-08-12T08:08:16;19.20;99.90
45837;DHT22;31548;51.420;-0.040;2023-08-12T08:10:43;19.30;99.90
45837;DHT22;31548;51.420;-0.040;2023-08-12T08:13:11;19.30;99.90
45837;DHT22;31548;51.420;-0.040;2023-08-12T08:15:38;19.40;99.90
45837;DHT22;31548;51.420;-0.040;2023-08-12T08:18:06;19.50;99.90
45837;DHT22;31548;51.420;-0.040;2023-08-12T08:20:35;19.60;99.90
45837;DHT22;31548;51.420;-0.040;2023-08-12T08:23:02;19.80;99.90
45837;DHT22;31548;51.420;-0.040;2023-08-12T08:25:30;19.60;99.90
45837;DHT22;31548;51.420;-0.040;2023-08-12T08:27:58;19.60;99.90
45837;DHT22;31548;51.420;-0.040;2023-08-12T08:30:25;19.60;99.90
45837;DHT22;31548;51.420;-0.040;2023-08-12T08:32:53;19.60;99.90
45837;DHT22;31548;51.420;-0.040;2023-08-12T08:35:21;19.60;99.90
45837;DHT22;31548;51.420;-0.040;2023-08-12T08:37:48;19.80;99.90
45837;DHT22;31548;51.420;-0.040;2023-08-12T08:40:16;19.80;99.90
45837;DHT22;31548;51.420;-0.040;2023-08-12T08:42:47;20.00;99.90
45837;DHT22;31548;51.420;-0.040;2023-08-12T08:45:18;20.10;99.90
45837;DHT22;31548;51.420;-0.040;2023-08-12T08:47:48;20.00;99.90
45837;DHT22;31548;51.420;-0.040;2023-08-12T08:50:17;20.00;99.90
45837;DHT22;31548;51.420;-0.040;2023-08-12T08:52:45;19.90;99.90
45837;DHT22;31548;51.420;-0.040;2023-08-12T08:55:12;19.90;99.90
45837;DHT22;31548;51.420;-0.040;2023-08-12T08:57:43;19.90;99.90
45837;DHT22;31548;51.420;-0.040;2023-08-12T09:00:16;19.90;99.90
45837;DHT22;31548;51.420;-0.040;2023-08-12T09:02:48;20.00;99.90
45837;DHT22;31548;51.420;-0.040;2023-08-12T09:05:17;20.10;99.90
45837;DHT22;31548;51.420;-0.040;2023-08-12T09:07:46;20.20;99.90
45837;DHT22;31548;51.420;-0.040;2023-08-12T09:10:14;20.30;99.90
45837;DHT22;31548;51.420;-0.040;2023-08-12T09:12:43;20.30;99.90
45837;DHT22;31548;51.420;-0.040;2023-08-12T09:15:10;20.50;99.90
45837;DHT22;31548;51.420;-0.040;2023-08-12T09:17:38;20.60;99.90
45837;DHT22;31548;51.420;-0.040;2023-08-12T09:20:06;20.60;99.90
45837;DHT22;31548;51.420;-0.040;2023-08-12T09:22:43;20.50;99.90
45837;DHT22;31548;51.420;-0.040;2023-08-12T09:25:10;20.50;99.90
45837;DHT22;31548;51.420;-0.040;2023-08-12T09:27:38;20.60;99.90
45837;DHT22;31548;51.420;-0.040;2023-08-12T09:30:06;20.80;99.90
45837;DHT22;31548;51.420;-0.040;2023-08-12T09:32:35;20.80;99.90
45837;DHT22;31548;51.420;-0.040;2023-08-12T09:35:02;20.80;99.90
45837;DHT22;31548;51.420;-0.040;2023-08-12T09:37:31;20.90;99.90
45837;DHT22;31548;51.420;-0.040;2023-08-12T09:39:58;21.00;99.90
45837;DHT22;31548;51.420;-0.040;2023-08-12T09:42:28;21.10;99.90
45837;DHT22;31548;51.420;-0.040;2023-08-12T09:44:56;21.10;99.90
45837;DHT22;31548;51.420;-0.040;2023-08-12T09:47:27;21.30;99.90
45837;DHT22;31548;51.420;-0.040;2023-08-12T09:49:54;21.50;99.90
45837;DHT22;31548;51.420;-0.040;2023-08-12T09:52:22;21.60;99.90
45837;DHT22;31548;51.420;-0.040;2023-08-12T09:54:51;21.70;99.90
45837;DHT22;31548;51.420;-0.040;2023-08-12T09:57:25;21.80;99.90
45837;DHT22;31548;51.420;-0.040;2023-08-12T09:59:53;21.90;99.90
45837;DHT22;31548;51.420;-0.040;2023-08-12T10:02:23;22.00;99.90
45837;DHT22;31548;51.420;-0.040;2023-08-12T10:04:53;22.00;99.90
45837;DHT22;31548;51.420;-0.040;2023-08-12T10:07:23;22.30;99.90
45837;DHT22;31548;51.420;-0.040;2023-08-12T10:09:52;22.30;99.90
45837;DHT22;31548;51.420;-0.040;2023-08-12T10:12:21;22.20;99.90
45837;DHT22;31548;51.420;-0.040;2023-08-12T10:14:49;22.10;99.90
45837;DHT22;31548;51.420;-0.040;2023-08-12T10:17:16;22.10;99.90
45837;DHT22;31548;51.420;-0.040;2023-08-12T10:20:06;22.20;99.90
45837;DHT22;31548;51.420;-0.040;2023-08-12T10:22:36;22.20;99.90
45837;DHT22;31548;51.420;-0.040;2023-08-12T10:25:08;22.40;99.90
45837;DHT22;31548;51.420;-0.040;2023-08-12T10:27:36;22.60;99.90
45837;DHT22;31548;51.420;-0.040;2023-08-12T10:30:05;22.50;99.90
45837;DHT22;31548;51.420;-0.040;2023-08-12T10:32:33;22.30;99.90
45837;DHT22;31548;51.420;-0.040;2023-08-12T10:35:01;22.30;99.90
45837;DHT22;31548;51.420;-0.040;2023-08-12T10:37:32;22.20;99.90
45837;DHT22;31548;51.420;-0.040;2023-08-12T10:40:19;22.00;99.90
45837;DHT22;31548;51.420;-0.040;2023-08-12T10:42:48;22.00;99.90
45837;DHT22;31548;51.420;-0.040;2023-08-12T10:45:17;22.00;99.90
45837;DHT22;31548;51.420;-0.040;2023-08-12T10:50:36;21.70;99.90
45837;DHT22;31548;51.420;-0.040;2023-08-12T10:53:31;21.60;99.90
45837;DHT22;31548;51.420;-0.040;2023-08-12T10:56:04;21.50;99.90
45837;DHT22;31548;51.420;-0.040;2023-08-12T10:58:45;21.50;99.90
45837;DHT22;31548;51.420;-0.040;2023-08-12T11:01:16;21.50;99.90
45837;DHT22;31548;51.420;-0.040;2023-08-12T11:03:45;21.50;99.90
45837;DHT22;31548;51.420;-0.040;2023-08-12T11:06:13;21.80;99.90
45837;DHT22;31548;51.420;-0.040;2023-08-12T11:08:48;21.90;99.90
45837;DHT22;31548;51.420;-0.040;2023-08-12T11:11:23;22.10;99.90
45837;DHT22;31548;51.420;-0.040;2023-08-12T11:13:56;22.30;99.90
45837;DHT22;31548;51.420;-0.040;2023-08-12T11:16:37;22.50;99.90
45837;DHT22;31548;51.420;-0.040;2023-08-12T11:19:04;22.70;99.90
45837;DHT22;31548;51.420;-0.040;2023-08-12T11:21:36;22.80;99.90
45837;DHT22;31548;51.420;-0.040;2023-08-12T11:24:04;22.80;99.90
45837;DHT22;31548;51.420;-0.040;2023-08-12T11:26:37;23.10;99.90
45837;DHT22;31548;51.420;-0.040;2023-08-12T11:29:10;23.20;99.90
45837;DHT22;31548;51.420;-0.040;2023-08-12T11:31:38;23.00;99.90
45837;DHT22;31548;51.420;-0.040;2023-08-12T11:34:06;22.90;99.90
45837;DHT22;31548;51.420;-0.040;2023-08-12T11:36:33;22.60;99.90
45837;DHT22;31548;51.420;-0.040;2023-08-12T11:39:01;22.50;99.90
45837;DHT22;31548;51.420;-0.040;2023-08-12T11:41:29;22.20;99.90
45837;DHT22;31548;51.420;-0.040;2023-08-12T11:43:56;22.10;99.90
45837;DHT22;31548;51.420;-0.040;2023-08-12T11:46:25;22.10;99.90
45837;DHT22;31548;51.420;-0.040;2023-08-12T11:48:52;21.90;99.90
45837;DHT22;31548;51.420;-0.040;2023-08-12T11:51:20;22.10;99.90
45837;DHT22;31548;51.420;-0.040;2023-08-12T11:53:47;22.30;99.90
45837;DHT22;31548;51.420;-0.040;2023-08-12T11:56:14;22.50;99.90
45837;DHT22;31548;51.420;-0.040;2023-08-12T11:58:42;22.90;99.90
45837;DHT22;31548;51.420;-0.040;2023-08-12T12:01:19;22.80;99.90
45837;DHT22;31548;51.420;-0.040;2023-08-12T12:03:53;23.00;99.90
45837;DHT22;31548;51.420;-0.040;2023-08-12T12:06:36;22.90;99.90
45837;DHT22;31548;51.420;-0.040;2023-08-12T12:09:07;23.10;99.90
45837;DHT22;31548;51.420;-0.040;2023-08-12T12:11:37;23.20;99.90
45837;DHT22;31548;51.420;-0.040;2023-08-12T12:14:07;23.30;99.90
45837;DHT22;31548;51.420;-0.040;2023-08-12T12:16:45;23.30;99.90
45837;DHT22;31548;51.420;-0.040;2023-08-12T12:19:16;23.20;99.90
45837;DHT22;31548;51.420;-0.040;2023-08-12T12:21:49;23.00;99.90
45837;DHT22;31548;51.420;-0.040;2023-08-12T12:24:18;22.90;99.90
45837;DHT22;31548;51.420;-0.040;2023-08-12T12:26:46;23.00;99.90
45837;DHT22;31548;51.420;-0.040;2023-08-12T12:29:16;23.30;99.90
45837;DHT22;31548;51.420;-0.040;2023-08-12T12:31:43;23.40;99.90
45837;DHT22;31548;51.420;-0.040;2023-08-12T12:34:11;23.30;99.90
45837;DHT22;31548;51.420;-0.040;2023-08-12T12:36:38;23.20;99.90
45837;DHT22;31548;51.420;-0.040;2023-08-12T12:39:06;23.30;99.90
45837;DHT22;31548;51.420;-0.040;2023-08-12T12:41:34;23.00;99.90
45837;DHT22;31548;51.420;-0.040;2023-08-12T12:44:02;23.00;99.90
45837;DHT22;31548;51.420;-0.040;2023-08-12T12:46:29;22.70;99.90
45837;DHT22;31548;51.420;-0.040;2023-08-12T12:49:07;22.60;99.90
45837;DHT22;31548;51.420;-0.040;2023-08-12T12:51:35;22.60;99.90
45837;DHT22;31548;51.420;-0.040;2023-08-12T12:54:02;22.90;99.90
45837;DHT22;31548;51.420;-0.040;2023-08-12T12:56:30;23.00;99.90
45837;DHT22;31548;51.420;-0.040;2023-08-12T12:58:57;23.40;99.90
45837;DHT22;31548;51.420;-0.040;2023-08-12T13:01:24;23.40;99.90
45837;DHT22;31548;51.420;-0.040;2023-08-12T13:03:52;23.20;99.90
45837;DHT22;31548;51.420;-0.040;2023-08-12T13:06:19;23.20;99.90
45837;DHT22;31548;51.420;-0.040;2023-08-12T13:08:47;23.10;99.90
45837;DHT22;31548;51.420;-0.040;2023-08-12T13:11:14;23.00;99.90
45837;DHT22;31548;51.420;-0.040;2023-08-12T13:13:41;23.30;99.90
45837;DHT22;31548;51.420;-0.040;2023-08-12T13:16:09;23.50;99.90
45837;DHT22;31548;51.420;-0.040;2023-08-12T13:18:36;23.40;99.90
45837;DHT22;31548;51.420;-0.040;2023-08-12T13:21:03;23.60;99.90
45837;DHT22;31548;51.420;-0.040;2023-08-12T13:23:31;23.60;99.90
45837;DHT22;31548;51.420;-0.040;2023-08-12T13:25:58;23.60;99.90
45837;DHT22;31548;51.420;-0.040;2023-08-12T13:28:25;23.80;99.90
45837;DHT22;31548;51.420;-0.040;2023-08-12T13:30:53;23.30;99.90
45837;DHT22;31548;51.420;-0.040;2023-08-12T13:33:20;23.10;99.90
45837;DHT22;31548;51.420;-0.040;2023-08-12T13:35:47;22.90;99.90
45837;DHT22;31548;51.420;-0.040;2023-08-12T13:38:15;23.00;99.90
45837;DHT22;31548;51.420;-0.040;2023-08-12T13:40:42;23.00;99.90
45837;DHT22;31548;51.420;-0.040;2023-08-12T13:43:09;23.00;99.90
45837;DHT22;31548;51.420;-0.040;2023-08-12T13:45:37;22.60;99.90
45837;DHT22;31548;51.420;-0.040;2023-08-12T13:48:04;22.40;99.90
45837;DHT22;31548;51.420;-0.040;2023-08-12T13:50:32;22.10;99.90
45837;DHT22;31548;51.420;-0.040;2023-08-12T13:52:59;22.00;99.90
45837;DHT22;31548;51.420;-0.040;2023-08-12T13:55:27;22.00;99.90
45837;DHT22;31548;51.420;-0.040;2023-08-12T13:57:54;22.00;99.90
45837;DHT22;31548;51.420;-0.040;2023-08-12T14:00:22;21.90;99.90
45837;DHT22;31548;51.420;-0.040;2023-08-12T14:02:51;22.10;99.90
45837;DHT22;31548;51.420;-0.040;2023-08-12T14:05:19;22.40;99.90
45837;DHT22;31548;51.420;-0.040;2023-08-12T14:07:47;22.40;99.90
45837;DHT22;31548;51.420;-0.040;2023-08-12T14:10:14;22.50;99.90
45837;DHT22;31548;51.420;-0.040;2023-08-12T14:12:42;22.60;99.90
45837;DHT22;31548;51.420;-0.040;2023-08-12T14:15:09;22.20;99.90
45837;DHT22;31548;51.420;-0.040;2023-08-12T14:17:37;22.10;99.90
45837;DHT22;31548;51.420;-0.040;2023-08-12T14:20:05;22.10;99.90
45837;DHT22;31548;51.420;-0.040;2023-08-12T14:22:35;22.20;99.90
45837;DHT22;31548;51.420;-0.040;2023-08-12T14:25:03;22.40;99.90
45837;DHT22;31548;51.420;-0.040;2023-08-12T14:27:32;22.70;99.90
45837;DHT22;31548;51.420;-0.040;2023-08-12T14:30:00;22.90;99.90
45837;DHT22;31548;51.420;-0.040;2023-08-12T14:32:27;23.30;99.90
45837;DHT22;31548;51.420;-0.040;2023-08-12T14:34:54;23.20;99.90
45837;DHT22;31548;51.420;-0.040;2023-08-12T14:37:22;23.50;99.90
45837;DHT22;31548;51.420;-0.040;2023-08-12T14:39:49;23.60;99.90
45837;DHT22;31548;51.420;-0.040;2023-08-12T14:42:16;23.40;99.90
45837;DHT22;31548;51.420;-0.040;2023-08-12T14:44:44;23.40;99.90
45837;DHT22;31548;51.420;-0.040;2023-08-12T14:47:11;23.20;99.90
45837;DHT22;31548;51.420;-0.040;2023-08-12T14:49:39;23.10;99.90
45837;DHT22;31548;51.420;-0.040;2023-08-12T14:52:15;23.20;99.90
45837;DHT22;31548;51.420;-0.040;2023-08-12T14:54:43;23.10;99.90
45837;DHT22;31548;51.420;-0.040;2023-08-12T14:57:10;23.00;99.90
45837;DHT22;31548;51.420;-0.040;2023-08-12T14:59:38;23.00;99.90
45837;DHT22;31548;51.420;-0.040;2023-08-12T15:02:05;23.00;99.90
45837;DHT22;31548;51.420;-0.040;2023-08-12T15:04:33;22.80;99.90
45837;DHT22;31548;51.420;-0.040;2023-08-12T15:07:01;22.70;99.90
45837;DHT22;31548;51.420;-0.040;2023-08-12T15:09:29;22.60;99.90
45837;DHT22;31548;51.420;-0.040;2023-08-12T15:11:56;22.70;99.90
45837;DHT22;31548;51.420;-0.040;2023-08-12T15:14:24;22.70;99.90
45837;DHT22;31548;51.420;-0.040;2023-08-12T15:16:52;22.80;99.90
45837;DHT22;31548;51.420;-0.040;2023-08-12T15:19:20;22.80;99.90
45837;DHT22;31548;51.420;-0.040;2023-08-12T15:21:47;23.20;99.90
45837;DHT22;31548;51.420;-0.040;2023-08-12T15:24:15;23.60;99.90
45837;DHT22;31548;51.420;-0.040;2023-08-12T15:26:43;24.10;99.90
45837;DHT22;31548;51.420;-0.040;2023-08-12T15:29:10;24.30;99.90
45837;DHT22;31548;51.420;-0.040;2023-08-12T15:31:37;23.80;99.90